createdAt,value
2022-11-16T00:02:45.083Z,99574.06
2022-11-16T00:05:46.730Z,99563.91
2022-11-16T00:09:10.472Z,99559.53
2022-11-16T00:12:12.701Z,99564.69
2022-11-16T00:15:14.302Z,99556.91
2022-11-16T00:18:15.845Z,99532.62
2022-11-16T00:21:17.416Z,99549.03
2022-11-16T00:24:20.354Z,99555.75
2022-11-16T00:27:21.872Z,99553.47
2022-11-16T00:30:23.375Z,99554.25
2022-11-16T00:33:24.927Z,99555.44
2022-11-16T00:36:26.459Z,99548.78
2022-11-16T00:39:28.029Z,99543.28
2022-11-16T00:42:29.563Z,99531.19
2022-11-16T00:45:31.149Z,99520.66
2022-11-16T00:48:32.970Z,99519.88
2022-11-16T00:51:35.618Z,99515.53
2022-11-16T00:54:37.155Z,99512.09
2022-11-16T00:57:38.711Z,99505.78
2022-11-16T01:00:41.091Z,99495.19
2022-11-16T01:03:42.742Z,99501.91
2022-11-16T01:06:44.297Z,99497.25
2022-11-16T01:09:45.875Z,99496.44
2022-11-16T01:12:48.977Z,99495.63
2022-11-16T01:15:50.508Z,99486.28
2022-11-16T01:18:53.842Z,99481.22
2022-11-16T01:21:55.399Z,99473.00
2022-11-16T01:24:56.962Z,99473.09
2022-11-16T01:27:58.522Z,99471.03
2022-11-16T01:31:00.246Z,99470.25
2022-11-16T01:34:01.937Z,99464.78
2022-11-16T01:37:03.465Z,99468.75
2022-11-16T01:40:05.612Z,99460.50
2022-11-16T01:43:18.101Z,99452.63
2022-11-16T01:46:19.846Z,99447.53
2022-11-16T01:49:22.790Z,99438.56
2022-11-16T01:52:28.169Z,99433.88
2022-11-16T01:55:31.451Z,99434.63
2022-11-16T01:58:33.173Z,99423.97
2022-11-16T02:01:34.991Z,99420.47
2022-11-16T02:04:36.559Z,99421.59
2022-11-16T02:08:09.132Z,99414.53
2022-11-16T02:11:29.085Z,99415.31
2022-11-16T02:14:36.450Z,99409.13
2022-11-16T02:17:46.985Z,99404.00
2022-11-16T02:20:54.483Z,99404.00
2022-11-16T02:23:55.930Z,99400.47
2022-11-16T02:27:03.409Z,99399.22
2022-11-16T02:30:05.862Z,99399.22
2022-11-16T02:33:12.335Z,99388.25
2022-11-16T02:36:17.954Z,99387.09
2022-11-16T02:39:23.363Z,99387.09
2022-11-16T02:43:08.346Z,99382.75
2022-11-16T02:46:15.273Z,99387.88
2022-11-16T02:49:20.311Z,99384.81
2022-11-16T02:52:22.258Z,99374.16
2022-11-16T02:55:24.427Z,99374.53
2022-11-16T02:58:26.087Z,99365.16
2022-11-16T03:01:41.493Z,99363.56
2022-11-16T03:04:49.705Z,99364.38
2022-11-16T03:07:59.690Z,99327.59
2022-11-16T03:11:23.294Z,99356.22
2022-11-16T03:14:29.370Z,99362.06
2022-11-16T03:17:45.898Z,99345.97
2022-11-16T03:20:49.989Z,99342.00
2022-11-16T03:23:51.731Z,99337.66
2022-11-16T03:27:28.710Z,99351.72
2022-11-16T03:30:33.021Z,99338.44
2022-11-16T03:33:41.180Z,99342.00
2022-11-16T03:36:43.774Z,99340.81
2022-11-16T03:39:45.357Z,99333.41
2022-11-16T03:42:49.536Z,99337.28
2022-11-16T03:45:51.108Z,99326.31
2022-11-16T03:48:57.379Z,99319.69
2022-11-16T03:51:59.244Z,99327.91
2022-11-16T03:55:00.782Z,99322.44
2022-11-16T03:58:02.344Z,99320.84
2022-11-16T04:01:04.259Z,99311.47
2022-11-16T04:04:05.886Z,99277.00
2022-11-16T04:07:27.030Z,99302.09
2022-11-16T04:10:47.321Z,99303.69
2022-11-16T04:14:09.270Z,99300.94
2022-11-16T04:17:31.575Z,99296.62
2022-11-16T04:20:51.364Z,99286.00
2022-11-16T04:24:11.643Z,99279.00
2022-11-16T04:27:33.187Z,99276.25
2022-11-16T04:30:53.903Z,99278.19
2022-11-16T04:34:14.188Z,99279.38
2022-11-16T04:37:55.684Z,99279.69
2022-11-16T04:40:57.206Z,99274.69
2022-11-16T04:43:59.027Z,99274.69
2022-11-16T04:47:09.240Z,99271.56
2022-11-16T04:50:11.286Z,99268.03
2022-11-16T04:53:13.485Z,99228.00
2022-11-16T04:56:14.998Z,99237.81
2022-11-16T04:59:17.362Z,99273.16
2022-11-16T05:02:19.030Z,99264.94
2022-11-16T05:05:20.701Z,99259.09
2022-11-16T05:08:22.236Z,99259.44
2022-11-16T05:11:23.844Z,99261.84
2022-11-16T05:14:25.386Z,99273.59
2022-11-16T05:17:27.492Z,99261.41
2022-11-16T05:20:47.621Z,99258.66
2022-11-16T05:24:07.922Z,99204.50
2022-11-16T05:27:14.223Z,99257.50
2022-11-16T05:30:16.192Z,99219.06
2022-11-16T05:33:18.618Z,99241.84
2022-11-16T05:36:20.153Z,99243.44
2022-11-16T05:39:21.856Z,99245.03
2022-11-16T05:42:23.503Z,99237.16
2022-11-16T05:45:25.044Z,99227.78
2022-11-16T05:48:26.577Z,99228.56
2022-11-16T05:51:28.119Z,99221.16
2022-11-16T05:54:31.213Z,99219.97
2022-11-16T05:57:32.789Z,99218.03
2022-11-16T06:00:34.339Z,99216.91
2022-11-16T06:03:36.460Z,99209.53
2022-11-16T06:06:38.552Z,99206.00
2022-11-16T06:09:40.155Z,99192.84
2022-11-16T06:12:41.697Z,99201.66
2022-11-16T06:18:59.427Z,99208.37
2022-11-16T06:22:01.058Z,99206.88
2022-11-16T06:25:02.886Z,99206.88
2022-11-16T06:28:07.875Z,99204.56
2022-11-16T06:31:09.886Z,99213.22
2022-11-16T06:34:11.451Z,99219.56
2022-11-16T06:37:12.985Z,99215.69
2022-11-16T06:40:14.902Z,99205.94
2022-11-16T06:43:16.575Z,99203.69
2022-11-16T06:46:18.182Z,99202.19
2022-11-16T06:49:19.717Z,99204.94
2022-11-16T06:52:21.297Z,99192.78
2022-11-16T06:55:22.812Z,99199.50
2022-11-16T06:58:24.338Z,99191.66
2022-11-16T07:01:25.927Z,99192.87
2022-11-16T07:04:27.498Z,99191.38
2022-11-16T07:07:29.113Z,99190.19
2022-11-16T07:10:30.716Z,99183.56
2022-11-16T07:13:36.917Z,99180.47
2022-11-16T07:16:38.426Z,99180.09
2022-11-16T07:19:40.183Z,99181.69
2022-11-16T07:22:41.736Z,99158.78
2022-11-16T07:25:46.739Z,99160.88
2022-11-16T07:28:48.771Z,99181.97
2022-11-16T07:31:50.540Z,99171.41
2022-11-16T07:34:52.068Z,99162.81
2022-11-16T07:37:53.619Z,99165.69
2022-11-16T07:40:55.168Z,99159.06
2022-11-16T07:43:56.963Z,99156.38
2022-11-16T07:46:58.485Z,99156.44
2022-11-16T07:50:00.024Z,99152.66
2022-11-16T07:53:01.856Z,99153.88
2022-11-16T07:56:04.018Z,99151.94
2022-11-16T07:59:06.111Z,99159.81
2022-11-16T08:02:09.980Z,99158.41
2022-11-16T08:05:11.529Z,99147.87
2022-11-16T08:08:13.363Z,99145.56
2022-11-16T08:11:15.223Z,99144.16
2022-11-16T08:14:18.651Z,99137.44
2022-11-16T08:17:20.185Z,99136.81
2022-11-16T08:20:21.936Z,99141.53
2022-11-16T08:23:23.493Z,99128.88
2022-11-16T08:26:25.072Z,99138.03
2022-11-16T08:29:26.852Z,99138.03
2022-11-16T08:32:29.761Z,99141.91
2022-11-16T08:35:31.308Z,99136.44
2022-11-16T08:38:33.117Z,99127.50
2022-11-16T08:41:38.028Z,99128.62
2022-11-16T08:44:39.550Z,99137.25
2022-11-16T08:47:41.090Z,99121.19
2022-11-16T08:51:15.301Z,99129.09
2022-11-16T08:54:05.242Z,99124.41
2022-11-16T08:57:06.958Z,99126.34
2022-11-16T09:00:09.194Z,99122.03
2022-11-16T09:03:10.728Z,99123.31
2022-11-16T09:06:12.579Z,99120.97
2022-11-16T09:09:14.148Z,99116.69
2022-11-16T09:12:15.824Z,99118.34
2022-11-16T09:15:19.343Z,99111.75
2022-11-16T09:18:20.904Z,99110.63
2022-11-16T09:21:24.543Z,99121.28
2022-11-16T09:24:26.097Z,99113.56
2022-11-16T09:27:27.639Z,99110.88
2022-11-16T09:30:29.192Z,99116.00
2022-11-16T09:33:31.609Z,99052.28
2022-11-16T09:36:33.709Z,99107.09
2022-11-16T09:39:35.212Z,99105.84
2022-11-16T09:43:11.908Z,99107.91
2022-11-16T09:46:37.494Z,99096.16
2022-11-16T09:49:42.201Z,99097.28
2022-11-16T09:52:46.712Z,99085.50
2022-11-16T09:55:53.781Z,99082.75
2022-11-16T09:59:23.282Z,99075.62
2022-11-16T10:02:39.068Z,99077.97
2022-11-16T10:05:51.917Z,99068.09
2022-11-16T10:08:56.680Z,99054.41
2022-11-16T10:12:01.033Z,99064.97
2022-11-16T10:15:23.667Z,99062.94
2022-11-16T10:18:36.248Z,99055.44
2022-11-16T10:21:48.379Z,99047.69
2022-11-16T10:25:01.158Z,99045.44
2022-11-16T10:28:27.688Z,99042.34
2022-11-16T10:31:49.098Z,99025.84
2022-11-16T10:35:03.749Z,99029.56
2022-11-16T10:38:14.966Z,99026.72
2022-11-16T10:41:16.504Z,99021.53
2022-11-16T10:44:37.485Z,99014.78
2022-11-16T10:47:42.734Z,99006.22
2022-11-16T10:50:47.264Z,99009.81
2022-11-16T10:53:49.551Z,99010.22
2022-11-16T11:07:24.642Z,98992.12
2022-11-16T11:10:35.118Z,98992.38
2022-11-16T11:13:36.950Z,98983.69
2022-11-16T11:16:38.709Z,98972.34
2022-11-16T11:19:40.260Z,98965.28
2022-11-16T11:22:52.592Z,98961.47
2022-11-16T11:25:59.731Z,98960.75
2022-11-16T11:29:02.313Z,98959.25
2022-11-16T11:32:13.184Z,98953.00
2022-11-16T11:35:30.381Z,98949.41
2022-11-16T11:38:32.745Z,98947.81
2022-11-16T11:41:37.575Z,98938.34
2022-11-16T11:45:04.108Z,98945.41
2022-11-16T11:48:29.170Z,98940.94
2022-11-16T11:51:35.272Z,98934.53
2022-11-16T11:54:46.162Z,98934.41
2022-11-16T11:57:50.004Z,98934.00
2022-11-16T12:01:25.276Z,98931.19
2022-11-16T12:04:39.547Z,98932.00
2022-11-16T12:08:17.179Z,98933.22
2022-11-16T12:11:34.030Z,98926.91
2022-11-16T12:14:35.473Z,98925.75
2022-11-16T12:17:55.243Z,98928.84
2022-11-16T12:21:14.127Z,98929.62
2022-11-16T12:24:33.357Z,98915.06
2022-11-16T12:28:23.044Z,98917.81
2022-11-16T12:31:27.535Z,98916.19
2022-11-16T12:34:53.731Z,98921.28
2022-11-16T12:38:16.119Z,98916.13
2022-11-16T12:41:20.592Z,98861.12
2022-11-16T12:44:28.437Z,98914.56
2022-11-16T12:48:04.181Z,98900.41
2022-11-16T12:51:38.501Z,98848.19
2022-11-16T12:55:24.788Z,98900.91
2022-11-16T12:58:26.827Z,98895.41
2022-11-16T13:02:12.637Z,98899.72
2022-11-16T13:05:19.249Z,98901.25
2022-11-16T13:08:38.100Z,98897.66
2022-11-16T13:11:45.739Z,98893.72
2022-11-16T13:14:49.006Z,98891.38
2022-11-16T13:17:55.633Z,98890.16
2022-11-16T13:21:12.957Z,98889.75
2022-11-16T13:24:23.278Z,98886.59
2022-11-16T13:27:48.148Z,98887.41
2022-11-16T13:31:03.612Z,98881.41
2022-11-16T13:34:15.684Z,98884.97
2022-11-16T13:37:39.261Z,98885.38
2022-11-16T13:40:41.335Z,98879.53
2022-11-16T13:43:48.811Z,98881.88
2022-11-16T13:47:04.147Z,98879.06
2022-11-16T13:50:07.243Z,98880.59
2022-11-16T13:57:07.270Z,98871.94
2022-11-16T14:00:21.229Z,98875.06
2022-11-16T14:03:22.683Z,98865.22
2022-11-16T14:06:24.231Z,98874.25
2022-11-16T14:09:42.697Z,98861.31
2022-11-16T14:12:44.164Z,98871.50
2022-11-16T14:15:45.704Z,98862.84
2022-11-16T14:18:59.347Z,98855.72
2022-11-16T14:22:07.706Z,98858.88
2022-11-16T14:25:39.464Z,98853.28
2022-11-16T14:29:07.352Z,98859.16
2022-11-16T14:32:21.000Z,98849.31
2022-11-16T14:35:32.496Z,98845.38
2022-11-16T14:38:39.350Z,98850.09
2022-11-16T14:41:44.450Z,98845.38
2022-11-16T14:44:46.963Z,98839.84
2022-11-16T14:47:48.896Z,98835.87
2022-11-16T14:51:12.641Z,98826.72
2022-11-16T14:54:29.294Z,98840.16
2022-11-16T14:57:31.088Z,98839.41
2022-11-16T15:00:32.696Z,98837.81
2022-11-16T15:03:39.810Z,98835.06
2022-11-16T15:06:49.020Z,98829.94
2022-11-16T15:09:53.423Z,98831.91
2022-11-16T15:12:57.479Z,98828.34
2022-11-16T15:16:16.263Z,98829.53
2022-11-16T15:19:18.254Z,98818.91
2022-11-16T15:22:20.149Z,98828.31
2022-11-16T15:25:37.808Z,98831.88
2022-11-16T15:28:39.999Z,98765.81
2022-11-16T15:31:42.253Z,98824.75
2022-11-16T15:34:48.056Z,98821.19
2022-11-16T15:38:04.973Z,98813.75
2022-11-16T15:41:06.565Z,98812.53
2022-11-16T15:44:14.648Z,98814.47
2022-11-16T15:47:17.329Z,98814.47
2022-11-16T15:50:19.362Z,98811.72
2022-11-16T15:53:39.832Z,98818.38
2022-11-16T15:56:41.662Z,98810.13
2022-11-16T15:59:48.432Z,98812.06
2022-11-16T16:02:50.860Z,98812.06
2022-11-16T16:05:53.166Z,98813.25
2022-11-16T16:09:05.611Z,98810.91
2022-11-16T16:12:28.012Z,98803.06
2022-11-16T16:15:40.113Z,98795.59
2022-11-16T16:18:43.202Z,98795.59
2022-11-16T16:21:46.048Z,98794.81
2022-11-16T16:24:47.574Z,98795.59
2022-11-16T16:27:49.216Z,98795.19
2022-11-16T16:30:51.125Z,98795.97
2022-11-16T16:33:52.852Z,98797.56
2022-11-16T16:36:54.386Z,98795.97
2022-11-16T16:39:56.192Z,98805.41
2022-11-16T16:42:58.089Z,98801.44
2022-11-16T16:46:03.944Z,98793.19
2022-11-16T16:49:05.514Z,98796.75
2022-11-16T16:52:08.029Z,98791.25
2022-11-16T16:55:09.577Z,98787.31
2022-11-16T16:58:12.262Z,98785.75
2022-11-16T17:01:14.165Z,98790.47
2022-11-16T17:04:15.734Z,98786.91
2022-11-16T17:07:17.469Z,98790.47
2022-11-16T17:10:19.276Z,98793.19
2022-11-16T17:13:20.863Z,98792.41
2022-11-16T17:16:22.490Z,98786.53
2022-11-16T17:19:24.210Z,98779.81
2022-11-16T17:22:25.747Z,98786.06
2022-11-16T17:25:27.335Z,98787.63
2022-11-16T17:28:28.847Z,98783.31
2022-11-16T17:31:30.395Z,98778.97
2022-11-16T17:34:32.052Z,98775.44
2022-11-16T17:37:33.595Z,98778.19
2022-11-16T17:40:35.156Z,98777.03
2022-11-16T17:43:37.010Z,98782.91
2022-11-16T17:46:38.687Z,98777.81
2022-11-16T17:49:40.250Z,98766.34
2022-11-16T17:52:41.791Z,98769.16
2022-11-16T17:55:43.313Z,98764.06
2022-11-16T17:58:45.388Z,98771.91
2022-11-16T18:01:47.054Z,98736.75
2022-11-16T18:04:51.288Z,98765.63
2022-11-16T18:07:53.051Z,98763.25
2022-11-16T18:10:54.580Z,98762.06
2022-11-16T18:13:58.408Z,98766.00
2022-11-16T18:16:59.981Z,98760.88
2022-11-16T18:20:01.877Z,98768.75
2022-11-16T18:23:04.342Z,98760.13
2022-11-16T18:26:13.744Z,98766.41
2022-11-16T18:29:15.890Z,98762.03
2022-11-16T18:32:17.475Z,98754.59
2022-11-16T18:35:19.009Z,98755.75
2022-11-16T18:38:20.613Z,98752.59
2022-11-16T18:41:24.561Z,98748.28
2022-11-16T18:44:26.205Z,98756.53
2022-11-16T18:47:27.787Z,98756.53
2022-11-16T18:50:29.318Z,98745.91
2022-11-16T18:53:32.407Z,98747.84
2022-11-16T18:56:36.198Z,98752.56
2022-11-16T18:59:38.121Z,98758.84
2022-11-16T19:02:39.667Z,98744.69
2022-11-16T19:05:41.192Z,98756.47
2022-11-16T19:08:42.812Z,98759.63
2022-11-16T19:11:44.444Z,98737.13
2022-11-16T19:14:45.970Z,98756.47
2022-11-16T19:18:06.628Z,98750.19
2022-11-16T19:21:11.166Z,98745.50
2022-11-16T19:24:12.685Z,98746.28
2022-11-16T19:27:14.231Z,98748.22
2022-11-16T19:30:15.946Z,98750.97
2022-11-16T19:33:17.487Z,98750.19
2022-11-16T19:36:19.781Z,98743.91
2022-11-16T19:39:21.307Z,98722.56
2022-11-16T19:42:22.860Z,98742.31
2022-11-16T19:45:24.381Z,98741.94
2022-11-16T19:48:25.901Z,98743.50
2022-11-16T19:51:29.463Z,98732.47
2022-11-16T19:54:30.980Z,98730.91
2022-11-16T19:57:32.550Z,98728.50
2022-11-16T20:00:34.132Z,98730.50
2022-11-16T20:03:38.307Z,98732.06
2022-11-16T20:06:40.828Z,98738.72
2022-11-16T20:09:42.346Z,98727.75
2022-11-16T20:12:43.914Z,98725.75
2022-11-16T20:15:45.443Z,98727.75
2022-11-16T20:18:47.654Z,98732.03
2022-11-16T20:21:49.251Z,98694.88
2022-11-16T20:24:50.777Z,98698.03
2022-11-16T20:27:52.296Z,98733.53
2022-11-16T20:30:53.860Z,98734.25
2022-11-16T20:33:57.900Z,98729.16
2022-11-16T20:36:59.407Z,98732.62
2022-11-16T20:40:00.976Z,98736.19
2022-11-16T20:43:02.551Z,98728.31
2022-11-16T20:46:07.442Z,98729.91
2022-11-16T20:49:09.058Z,98718.94
2022-11-16T20:52:10.581Z,98714.63
2022-11-16T20:55:12.082Z,98709.53
2022-11-16T20:58:17.528Z,98715.03
2022-11-16T21:01:28.829Z,98715.03
2022-11-16T21:04:30.560Z,98715.44
2022-11-16T21:07:32.153Z,98711.50
2022-11-16T21:10:36.322Z,98709.94
2022-11-16T21:13:56.278Z,98720.91
2022-11-16T21:16:57.915Z,98709.94
2022-11-16T21:20:25.372Z,98713.84
2022-11-16T21:23:20.972Z,98714.63
2022-11-16T21:26:24.473Z,98719.72
2022-11-16T21:29:27.203Z,98715.38
2022-11-16T21:32:28.738Z,98711.41
2022-11-16T21:35:30.385Z,98705.91
2022-11-16T21:38:32.514Z,98697.63
2022-11-16T21:41:34.452Z,98692.09
2022-11-16T21:44:44.841Z,98694.06
2022-11-16T21:47:46.363Z,98686.97
2022-11-16T21:50:47.880Z,98686.59
2022-11-16T21:53:49.440Z,98687.00
2022-11-16T21:56:50.960Z,98649.16
2022-11-16T21:59:52.509Z,98676.81
2022-11-16T22:02:54.119Z,98668.59
2022-11-16T22:06:19.221Z,98665.06
2022-11-16T22:09:20.818Z,98659.94
2022-11-16T22:12:22.348Z,98666.63
2022-11-16T22:15:23.914Z,98660.72
2022-11-16T22:18:25.450Z,98656.78
2022-11-16T22:21:26.971Z,98651.72
2022-11-16T22:24:28.482Z,98654.06
2022-11-16T22:27:30.320Z,98666.66
2022-11-16T22:30:31.940Z,98682.72
2022-11-16T22:33:34.602Z,98686.25
2022-11-16T22:36:36.443Z,98685.47
2022-11-16T22:39:37.999Z,98682.72
2022-11-16T22:42:39.524Z,98672.56
2022-11-16T22:45:41.079Z,98698.03
2022-11-16T22:48:43.675Z,98681.16
2022-11-16T22:51:45.861Z,98672.94
2022-11-16T22:54:47.404Z,98685.84
2022-11-16T22:57:48.982Z,98672.84
2022-11-16T23:00:52.064Z,98677.53
2022-11-16T23:03:53.666Z,98678.78
2022-11-16T23:06:55.272Z,98681.91
2022-11-16T23:09:56.807Z,98670.13
2022-11-16T23:13:16.991Z,98677.94
2022-11-16T23:16:18.532Z,98677.19
2022-11-16T23:19:39.743Z,98676.38
2022-11-16T23:22:59.591Z,98671.31
2022-11-16T23:26:20.513Z,98662.28
2022-11-16T23:29:22.035Z,98657.91
2022-11-16T23:32:23.584Z,98669.28
2022-11-16T23:35:25.145Z,98673.16
2022-11-16T23:38:26.674Z,98670.81
2022-11-16T23:41:47.791Z,98661.78
2022-11-16T23:44:49.304Z,98664.09
2022-11-16T23:47:50.816Z,98662.53
2022-11-16T23:50:52.344Z,98658.19
2022-11-16T23:53:54.768Z,98671.50
2022-11-16T23:56:57.512Z,98660.94
2022-11-16T23:59:59.024Z,98650.66
